sensor_id;sensor_type;location;lat;lon;timestamp;P1;durP1;ratioP1;P2;durP2;ratioP2
4766;SDS011;2397;53.576;9.746;2023-03-31T00:00:10;14.53;;;4.63;;
4766;SDS011;2397;53.576;9.746;2023-03-31T00:02:37;21.23;;;5.23;;
4766;SDS011;2397;53.576;9.746;2023-03-31T00:05:07;16.10;;;5.13;;
4766;SDS011;2397;53.576;9.746;2023-03-31T00:07:34;17.20;;;4.03;;
4766;SDS011;2397;53.576;9.746;2023-03-31T00:10:04;19.80;;;5.50;;
4766;SDS011;2397;53.576;9.746;2023-03-31T00:12:45;29.17;;;4.90;;
4766;SDS011;2397;53.576;9.746;2023-03-31T00:15:11;16.20;;;4.73;;
4766;SDS011;2397;53.576;9.746;2023-03-31T00:17:38;14.90;;;5.50;;
4766;SDS011;2397;53.576;9.746;2023-03-31T00:20:05;18.73;;;3.70;;
4766;SDS011;2397;53.576;9.746;2023-03-31T00:22:37;11.97;;;4.17;;
4766;SDS011;2397;53.576;9.746;2023-03-31T00:25:08;16.23;;;4.40;;
4766;SDS011;2397;53.576;9.746;2023-03-31T00:27:36;15.53;;;5.07;;
4766;SDS011;2397;53.576;9.746;2023-03-31T00:30:03;15.43;;;3.93;;
4766;SDS011;2397;53.576;9.746;2023-03-31T00:32:30;15.30;;;4.57;;
4766;SDS011;2397;53.576;9.746;2023-03-31T00:34:58;9.63;;;3.53;;
4766;SDS011;2397;53.576;9.746;2023-03-31T00:37:27;14.07;;;3.90;;
4766;SDS011;2397;53.576;9.746;2023-03-31T00:39:54;17.47;;;5.20;;
4766;SDS011;2397;53.576;9.746;2023-03-31T00:42:21;15.83;;;3.70;;
4766;SDS011;2397;53.576;9.746;2023-03-31T00:47:41;17.87;;;3.50;;
4766;SDS011;2397;53.576;9.746;2023-03-31T00:50:19;14.97;;;3.80;;
4766;SDS011;2397;53.576;9.746;2023-03-31T00:52:50;16.00;;;3.63;;
4766;SDS011;2397;53.576;9.746;2023-03-31T00:55:24;16.83;;;4.20;;
4766;SDS011;2397;53.576;9.746;2023-03-31T00:57:56;21.50;;;3.37;;
4766;SDS011;2397;53.576;9.746;2023-03-31T01:00:23;22.33;;;4.00;;
4766;SDS011;2397;53.576;9.746;2023-03-31T01:02:54;11.43;;;3.10;;
4766;SDS011;2397;53.576;9.746;2023-03-31T01:05:31;17.70;;;3.93;;
4766;SDS011;2397;53.576;9.746;2023-03-31T01:08:02;12.40;;;3.37;;
4766;SDS011;2397;53.576;9.746;2023-03-31T01:10:32;12.60;;;3.40;;
4766;SDS011;2397;53.576;9.746;2023-03-31T01:13:07;17.60;;;4.10;;
4766;SDS011;2397;53.576;9.746;2023-03-31T01:15:36;14.17;;;4.33;;
4766;SDS011;2397;53.576;9.746;2023-03-31T01:18:06;13.00;;;3.73;;
4766;SDS011;2397;53.576;9.746;2023-03-31T01:21:01;19.50;;;3.90;;
4766;SDS011;2397;53.576;9.746;2023-03-31T01:24:04;11.53;;;3.60;;
4766;SDS011;2397;53.576;9.746;2023-03-31T01:41:37;15.27;;;4.10;;
4766;SDS011;2397;53.576;9.746;2023-03-31T01:47:13;15.87;;;4.30;;
4766;SDS011;2397;53.576;9.746;2023-03-31T01:49:51;14.40;;;4.10;;
4766;SDS011;2397;53.576;9.746;2023-03-31T01:52:39;18.97;;;3.60;;
4766;SDS011;2397;53.576;9.746;2023-03-31T01:57:46;21.73;;;4.03;;
4766;SDS011;2397;53.576;9.746;2023-03-31T02:00:16;15.53;;;4.23;;
4766;SDS011;2397;53.576;9.746;2023-03-31T02:05:45;9.07;;;3.60;;
4766;SDS011;2397;53.576;9.746;2023-03-31T02:08:33;13.20;;;4.17;;
4766;SDS011;2397;53.576;9.746;2023-03-31T02:11:03;15.43;;;3.70;;
4766;SDS011;2397;53.576;9.746;2023-03-31T02:13:30;14.27;;;3.73;;
4766;SDS011;2397;53.576;9.746;2023-03-31T02:16:01;10.50;;;3.57;;
4766;SDS011;2397;53.576;9.746;2023-03-31T02:18:34;9.10;;;3.53;;
4766;SDS011;2397;53.576;9.746;2023-03-31T02:21:03;12.10;;;4.23;;
4766;SDS011;2397;53.576;9.746;2023-03-31T02:23:33;16.47;;;3.97;;
4766;SDS011;2397;53.576;9.746;2023-03-31T02:26:03;16.63;;;4.17;;
4766;SDS011;2397;53.576;9.746;2023-03-31T02:28:35;9.33;;;4.30;;
4766;SDS011;2397;53.576;9.746;2023-03-31T02:33:46;11.30;;;4.50;;
4766;SDS011;2397;53.576;9.746;2023-03-31T02:36:13;18.60;;;4.33;;
4766;SDS011;2397;53.576;9.746;2023-03-31T02:38:49;11.53;;;4.43;;
4766;SDS011;2397;53.576;9.746;2023-03-31T02:41:19;20.17;;;4.50;;
4766;SDS011;2397;53.576;9.746;2023-03-31T02:43:45;16.33;;;4.40;;
4766;SDS011;2397;53.576;9.746;2023-03-31T02:46:12;15.40;;;4.93;;
4766;SDS011;2397;53.576;9.746;2023-03-31T02:48:40;16.13;;;5.03;;
4766;SDS011;2397;53.576;9.746;2023-03-31T03:03:15;11.43;;;4.13;;
4766;SDS011;2397;53.576;9.746;2023-03-31T03:06:15;15.13;;;5.10;;
4766;SDS011;2397;53.576;9.746;2023-03-31T03:14:21;18.07;;;5.50;;
4766;SDS011;2397;53.576;9.746;2023-03-31T03:17:01;12.83;;;4.83;;
4766;SDS011;2397;53.576;9.746;2023-03-31T03:19:32;7.10;;;4.60;;
4766;SDS011;2397;53.576;9.746;2023-03-31T03:21:58;12.80;;;5.13;;
4766;SDS011;2397;53.576;9.746;2023-03-31T03:24:25;16.83;;;5.20;;
4766;SDS011;2397;53.576;9.746;2023-03-31T03:26:55;11.60;;;4.20;;
4766;SDS011;2397;53.576;9.746;2023-03-31T03:29:22;11.80;;;4.97;;
4766;SDS011;2397;53.576;9.746;2023-03-31T03:31:49;11.37;;;4.63;;
4766;SDS011;2397;53.576;9.746;2023-03-31T03:34:15;13.80;;;4.43;;
4766;SDS011;2397;53.576;9.746;2023-03-31T03:36:44;11.40;;;4.37;;
4766;SDS011;2397;53.576;9.746;2023-03-31T03:39:11;18.00;;;5.20;;
4766;SDS011;2397;53.576;9.746;2023-03-31T03:41:38;14.53;;;5.20;;
4766;SDS011;2397;53.576;9.746;2023-03-31T03:44:05;13.70;;;4.40;;
4766;SDS011;2397;53.576;9.746;2023-03-31T03:46:31;10.07;;;4.20;;
4766;SDS011;2397;53.576;9.746;2023-03-31T03:48:58;10.77;;;4.80;;
4766;SDS011;2397;53.576;9.746;2023-03-31T03:51:24;12.90;;;4.50;;
4766;SDS011;2397;53.576;9.746;2023-03-31T03:53:51;8.60;;;4.80;;
4766;SDS011;2397;53.576;9.746;2023-03-31T03:56:17;12.57;;;4.87;;
4766;SDS011;2397;53.576;9.746;2023-03-31T03:58:44;11.27;;;5.20;;
4766;SDS011;2397;53.576;9.746;2023-03-31T04:01:10;7.73;;;4.80;;
4766;SDS011;2397;53.576;9.746;2023-03-31T04:03:37;10.80;;;5.70;;
4766;SDS011;2397;53.576;9.746;2023-03-31T04:06:04;8.70;;;4.40;;
4766;SDS011;2397;53.576;9.746;2023-03-31T04:08:31;7.40;;;4.83;;
4766;SDS011;2397;53.576;9.746;2023-03-31T04:10:57;11.00;;;5.90;;
4766;SDS011;2397;53.576;9.746;2023-03-31T04:13:24;10.73;;;5.00;;
4766;SDS011;2397;53.576;9.746;2023-03-31T04:15:51;9.50;;;5.20;;
4766;SDS011;2397;53.576;9.746;2023-03-31T04:18:17;14.50;;;4.67;;
4766;SDS011;2397;53.576;9.746;2023-03-31T04:20:51;19.03;;;5.13;;
4766;SDS011;2397;53.576;9.746;2023-03-31T04:23:31;15.97;;;5.37;;
4766;SDS011;2397;53.576;9.746;2023-03-31T04:25:58;15.60;;;4.80;;
4766;SDS011;2397;53.576;9.746;2023-03-31T04:28:25;13.60;;;5.40;;
4766;SDS011;2397;53.576;9.746;2023-03-31T04:31:00;14.73;;;7.00;;
4766;SDS011;2397;53.576;9.746;2023-03-31T04:33:28;11.27;;;5.13;;
4766;SDS011;2397;53.576;9.746;2023-03-31T04:35:54;10.77;;;4.80;;
4766;SDS011;2397;53.576;9.746;2023-03-31T04:38:22;15.90;;;5.20;;
4766;SDS011;2397;53.576;9.746;2023-03-31T04:40:49;14.10;;;6.00;;
4766;SDS011;2397;53.576;9.746;2023-03-31T04:43:17;14.60;;;6.47;;
4766;SDS011;2397;53.576;9.746;2023-03-31T04:45:45;11.03;;;5.60;;
4766;SDS011;2397;53.576;9.746;2023-03-31T04:48:12;10.83;;;5.27;;
4766;SDS011;2397;53.576;9.746;2023-03-31T04:50:38;15.67;;;6.57;;
4766;SDS011;2397;53.576;9.746;2023-03-31T04:53:05;11.90;;;6.23;;
4766;SDS011;2397;53.576;9.746;2023-03-31T04:55:32;9.10;;;5.70;;
4766;SDS011;2397;53.576;9.746;2023-03-31T04:57:59;11.70;;;5.87;;
4766;SDS011;2397;53.576;9.746;2023-03-31T05:00:26;12.93;;;6.03;;
4766;SDS011;2397;53.576;9.746;2023-03-31T05:02:54;11.20;;;5.67;;
4766;SDS011;2397;53.576;9.746;2023-03-31T05:05:21;13.90;;;6.73;;
4766;SDS011;2397;53.576;9.746;2023-03-31T05:07:47;18.80;;;6.50;;
4766;SDS011;2397;53.576;9.746;2023-03-31T05:10:14;9.67;;;5.73;;
4766;SDS011;2397;53.576;9.746;2023-03-31T05:12:40;12.63;;;6.47;;
4766;SDS011;2397;53.576;9.746;2023-03-31T05:15:07;13.73;;;6.80;;
4766;SDS011;2397;53.576;9.746;2023-03-31T05:17:34;15.20;;;7.00;;
4766;SDS011;2397;53.576;9.746;2023-03-31T05:20:01;15.07;;;6.73;;
4766;SDS011;2397;53.576;9.746;2023-03-31T05:22:35;11.40;;;6.20;;
4766;SDS011;2397;53.576;9.746;2023-03-31T05:25:04;15.00;;;7.00;;
4766;SDS011;2397;53.576;9.746;2023-03-31T05:27:33;14.50;;;6.63;;
4766;SDS011;2397;53.576;9.746;2023-03-31T05:30:01;11.83;;;6.30;;
4766;SDS011;2397;53.576;9.746;2023-03-31T05:32:28;14.10;;;6.57;;
4766;SDS011;2397;53.576;9.746;2023-03-31T05:34:55;9.20;;;5.93;;
4766;SDS011;2397;53.576;9.746;2023-03-31T05:37:23;12.90;;;7.50;;
4766;SDS011;2397;53.576;9.746;2023-03-31T05:39:50;10.90;;;6.40;;
4766;SDS011;2397;53.576;9.746;2023-03-31T05:42:17;13.20;;;6.30;;
4766;SDS011;2397;53.576;9.746;2023-03-31T05:44:44;14.00;;;6.70;;
4766;SDS011;2397;53.576;9.746;2023-03-31T05:47:11;14.00;;;6.63;;
4766;SDS011;2397;53.576;9.746;2023-03-31T05:49:38;18.67;;;8.30;;
4766;SDS011;2397;53.576;9.746;2023-03-31T05:52:05;15.33;;;7.80;;
4766;SDS011;2397;53.576;9.746;2023-03-31T05:54:32;13.03;;;7.03;;
4766;SDS011;2397;53.576;9.746;2023-03-31T05:56:58;14.90;;;8.00;;
4766;SDS011;2397;53.576;9.746;2023-03-31T05:59:25;16.33;;;7.83;;
4766;SDS011;2397;53.576;9.746;2023-03-31T06:01:52;13.33;;;7.50;;
4766;SDS011;2397;53.576;9.746;2023-03-31T06:04:19;15.97;;;6.87;;
4766;SDS011;2397;53.576;9.746;2023-03-31T06:06:45;12.93;;;6.90;;
4766;SDS011;2397;53.576;9.746;2023-03-31T06:09:16;13.00;;;7.00;;
4766;SDS011;2397;53.576;9.746;2023-03-31T06:11:43;16.07;;;6.90;;
4766;SDS011;2397;53.576;9.746;2023-03-31T06:14:09;15.40;;;6.30;;
4766;SDS011;2397;53.576;9.746;2023-03-31T06:16:36;13.37;;;7.00;;
4766;SDS011;2397;53.576;9.746;2023-03-31T06:19:03;13.40;;;6.47;;
4766;SDS011;2397;53.576;9.746;2023-03-31T06:21:30;9.63;;;6.90;;
4766;SDS011;2397;53.576;9.746;2023-03-31T06:23:56;13.50;;;6.07;;
4766;SDS011;2397;53.576;9.746;2023-03-31T06:26:23;12.50;;;6.67;;
4766;SDS011;2397;53.576;9.746;2023-03-31T06:28:50;18.77;;;6.43;;
4766;SDS011;2397;53.576;9.746;2023-03-31T06:31:19;14.47;;;6.83;;
4766;SDS011;2397;53.576;9.746;2023-03-31T06:33:48;10.33;;;5.97;;
4766;SDS011;2397;53.576;9.746;2023-03-31T06:36:16;12.57;;;7.63;;
4766;SDS011;2397;53.576;9.746;2023-03-31T06:38:45;15.53;;;8.20;;
4766;SDS011;2397;53.576;9.746;2023-03-31T06:41:12;15.13;;;7.40;;
4766;SDS011;2397;53.576;9.746;2023-03-31T06:43:39;14.23;;;6.77;;
4766;SDS011;2397;53.576;9.746;2023-03-31T06:46:06;14.80;;;7.27;;
4766;SDS011;2397;53.576;9.746;2023-03-31T06:48:33;10.63;;;6.57;;
4766;SDS011;2397;53.576;9.746;2023-03-31T06:51:01;14.43;;;6.57;;
4766;SDS011;2397;53.576;9.746;2023-03-31T06:53:29;15.20;;;6.60;;
4766;SDS011;2397;53.576;9.746;2023-03-31T06:55:56;13.43;;;6.93;;
4766;SDS011;2397;53.576;9.746;2023-03-31T06:58:23;16.73;;;7.60;;
4766;SDS011;2397;53.576;9.746;2023-03-31T07:00:50;19.07;;;6.90;;
4766;SDS011;2397;53.576;9.746;2023-03-31T07:03:18;12.57;;;7.57;;
4766;SDS011;2397;53.576;9.746;2023-03-31T07:05:48;17.07;;;6.87;;
4766;SDS011;2397;53.576;9.746;2023-03-31T07:08:16;9.70;;;6.53;;
4766;SDS011;2397;53.576;9.746;2023-03-31T07:10:43;17.60;;;6.33;;
4766;SDS011;2397;53.576;9.746;2023-03-31T07:13:14;12.50;;;6.60;;
4766;SDS011;2397;53.576;9.746;2023-03-31T07:15:42;9.40;;;6.53;;
4766;SDS011;2397;53.576;9.746;2023-03-31T07:18:12;10.73;;;6.60;;
4766;SDS011;2397;53.576;9.746;2023-03-31T07:20:41;8.43;;;6.07;;
4766;SDS011;2397;53.576;9.746;2023-03-31T07:23:08;12.47;;;6.67;;
4766;SDS011;2397;53.576;9.746;2023-03-31T07:25:34;12.83;;;6.50;;
4766;SDS011;2397;53.576;9.746;2023-03-31T07:28:02;13.73;;;6.47;;
4766;SDS011;2397;53.576;9.746;2023-03-31T07:30:30;13.73;;;6.73;;
4766;SDS011;2397;53.576;9.746;2023-03-31T07:32:57;14.87;;;6.13;;
4766;SDS011;2397;53.576;9.746;2023-03-31T07:35:24;15.57;;;7.10;;
4766;SDS011;2397;53.576;9.746;2023-03-31T07:37:50;9.50;;;5.67;;
4766;SDS011;2397;53.576;9.746;2023-03-31T07:40:19;10.17;;;6.70;;
4766;SDS011;2397;53.576;9.746;2023-03-31T07:42:48;9.10;;;6.90;;
4766;SDS011;2397;53.576;9.746;2023-03-31T07:45:21;7.80;;;6.40;;
4766;SDS011;2397;53.576;9.746;2023-03-31T07:47:49;8.00;;;6.00;;
4766;SDS011;2397;53.576;9.746;2023-03-31T07:50:17;16.33;;;5.80;;
4766;SDS011;2397;53.576;9.746;2023-03-31T07:52:44;10.20;;;5.70;;
4766;SDS011;2397;53.576;9.746;2023-03-31T07:55:12;11.20;;;6.20;;
4766;SDS011;2397;53.576;9.746;2023-03-31T07:57:39;7.80;;;5.30;;
4766;SDS011;2397;53.576;9.746;2023-03-31T08:00:07;9.23;;;5.10;;
4766;SDS011;2397;53.576;9.746;2023-03-31T08:02:37;11.10;;;5.37;;
4766;SDS011;2397;53.576;9.746;2023-03-31T08:05:06;15.60;;;5.23;;
4766;SDS011;2397;53.576;9.746;2023-03-31T08:07:33;12.63;;;5.57;;
4766;SDS011;2397;53.576;9.746;2023-03-31T08:10:03;9.80;;;5.47;;
4766;SDS011;2397;53.576;9.746;2023-03-31T08:12:31;8.90;;;6.20;;
4766;SDS011;2397;53.576;9.746;2023-03-31T08:14:57;10.20;;;6.30;;
4766;SDS011;2397;53.576;9.746;2023-03-31T08:17:24;9.27;;;5.53;;
4766;SDS011;2397;53.576;9.746;2023-03-31T08:19:51;6.87;;;5.57;;
4766;SDS011;2397;53.576;9.746;2023-03-31T08:22:17;11.67;;;5.90;;
4766;SDS011;2397;53.576;9.746;2023-03-31T08:24:44;8.70;;;6.60;;
4766;SDS011;2397;53.576;9.746;2023-03-31T08:27:10;11.13;;;5.70;;
4766;SDS011;2397;53.576;9.746;2023-03-31T08:29:37;11.00;;;6.00;;
4766;SDS011;2397;53.576;9.746;2023-03-31T08:32:04;9.43;;;5.20;;
4766;SDS011;2397;53.576;9.746;2023-03-31T08:34:32;8.43;;;5.60;;
4766;SDS011;2397;53.576;9.746;2023-03-31T08:36:58;11.03;;;6.27;;
4766;SDS011;2397;53.576;9.746;2023-03-31T08:39:25;8.03;;;4.80;;
4766;SDS011;2397;53.576;9.746;2023-03-31T08:41:56;8.00;;;5.23;;
4766;SDS011;2397;53.576;9.746;2023-03-31T08:46:57;10.23;;;5.10;;
4766;SDS011;2397;53.576;9.746;2023-03-31T08:49:26;10.20;;;4.83;;
4766;SDS011;2397;53.576;9.746;2023-03-31T08:52:00;7.77;;;4.60;;
4766;SDS011;2397;53.576;9.746;2023-03-31T08:54:31;10.50;;;4.97;;
4766;SDS011;2397;53.576;9.746;2023-03-31T08:56:59;8.30;;;4.67;;
4766;SDS011;2397;53.576;9.746;2023-03-31T08:59:31;7.83;;;4.80;;
4766;SDS011;2397;53.576;9.746;2023-03-31T09:07:01;9.40;;;4.90;;
4766;SDS011;2397;53.576;9.746;2023-03-31T09:09:33;9.20;;;4.77;;
4766;SDS011;2397;53.576;9.746;2023-03-31T09:12:53;8.33;;;4.07;;
4766;SDS011;2397;53.576;9.746;2023-03-31T09:15:35;4.70;;;4.00;;
4766;SDS011;2397;53.576;9.746;2023-03-31T09:18:17;5.03;;;3.90;;
4766;SDS011;2397;53.576;9.746;2023-03-31T09:20:54;5.30;;;3.60;;
4766;SDS011;2397;53.576;9.746;2023-03-31T09:23:29;11.37;;;4.20;;
4766;SDS011;2397;53.576;9.746;2023-03-31T09:26:01;7.30;;;4.00;;
4766;SDS011;2397;53.576;9.746;2023-03-31T09:28:31;7.23;;;3.80;;
4766;SDS011;2397;53.576;9.746;2023-03-31T09:31:03;7.40;;;3.47;;
4766;SDS011;2397;53.576;9.746;2023-03-31T09:33:39;3.93;;;3.40;;
4766;SDS011;2397;53.576;9.746;2023-03-31T09:36:17;6.83;;;4.00;;
4766;SDS011;2397;53.576;9.746;2023-03-31T09:38:47;7.70;;;3.80;;
4766;SDS011;2397;53.576;9.746;2023-03-31T09:41:14;4.33;;;3.10;;
4766;SDS011;2397;53.576;9.746;2023-03-31T09:43:42;4.43;;;3.83;;
4766;SDS011;2397;53.576;9.746;2023-03-31T09:46:14;6.07;;;3.93;;
4766;SDS011;2397;53.576;9.746;2023-03-31T09:51:31;4.27;;;3.30;;
4766;SDS011;2397;53.576;9.746;2023-03-31T09:54:09;8.67;;;4.27;;
4766;SDS011;2397;53.576;9.746;2023-03-31T09:59:12;4.40;;;3.87;;
4766;SDS011;2397;53.576;9.746;2023-03-31T10:01:43;4.23;;;3.83;;
4766;SDS011;2397;53.576;9.746;2023-03-31T10:04:16;6.07;;;3.87;;
4766;SDS011;2397;53.576;9.746;2023-03-31T10:06:46;5.23;;;4.23;;
4766;SDS011;2397;53.576;9.746;2023-03-31T10:09:14;5.80;;;3.97;;
4766;SDS011;2397;53.576;9.746;2023-03-31T10:11:55;6.37;;;4.80;;
4766;SDS011;2397;53.576;9.746;2023-03-31T10:14:25;6.30;;;4.50;;
4766;SDS011;2397;53.576;9.746;2023-03-31T10:16:57;5.90;;;3.80;;
4766;SDS011;2397;53.576;9.746;2023-03-31T10:19:31;4.27;;;3.67;;
4766;SDS011;2397;53.576;9.746;2023-03-31T10:22:04;5.03;;;3.83;;
4766;SDS011;2397;53.576;9.746;2023-03-31T10:24:43;8.00;;;5.00;;
4766;SDS011;2397;53.576;9.746;2023-03-31T10:27:21;5.80;;;3.90;;
4766;SDS011;2397;53.576;9.746;2023-03-31T10:29:53;3.93;;;3.47;;
4766;SDS011;2397;53.576;9.746;2023-03-31T10:32:25;4.13;;;3.73;;
4766;SDS011;2397;53.576;9.746;2023-03-31T10:34:58;5.17;;;3.83;;
4766;SDS011;2397;53.576;9.746;2023-03-31T10:37:31;5.40;;;3.50;;
4766;SDS011;2397;53.576;9.746;2023-03-31T10:40:02;5.53;;;3.60;;
4766;SDS011;2397;53.576;9.746;2023-03-31T10:42:31;4.93;;;4.37;;
4766;SDS011;2397;53.576;9.746;2023-03-31T10:45:09;4.40;;;3.50;;
4766;SDS011;2397;53.576;9.746;2023-03-31T10:47:35;4.27;;;3.77;;
4766;SDS011;2397;53.576;9.746;2023-03-31T10:50:14;4.20;;;3.80;;
4766;SDS011;2397;53.576;9.746;2023-03-31T10:52:45;3.83;;;3.37;;
4766;SDS011;2397;53.576;9.746;2023-03-31T10:55:16;3.93;;;3.37;;
4766;SDS011;2397;53.576;9.746;2023-03-31T10:57:59;4.50;;;3.93;;
4766;SDS011;2397;53.576;9.746;2023-03-31T11:08:39;7.23;;;3.53;;
4766;SDS011;2397;53.576;9.746;2023-03-31T11:11:20;4.30;;;3.13;;
4766;SDS011;2397;53.576;9.746;2023-03-31T11:14:28;4.60;;;3.37;;
4766;SDS011;2397;53.576;9.746;2023-03-31T11:20:32;5.83;;;2.57;;
4766;SDS011;2397;53.576;9.746;2023-03-31T11:25:30;5.20;;;2.70;;
4766;SDS011;2397;53.576;9.746;2023-03-31T11:41:56;6.93;;;2.87;;
4766;SDS011;2397;53.576;9.746;2023-03-31T11:44:26;2.50;;;2.30;;
4766;SDS011;2397;53.576;9.746;2023-03-31T11:47:06;3.70;;;2.50;;
4766;SDS011;2397;53.576;9.746;2023-03-31T11:49:40;3.47;;;1.97;;
4766;SDS011;2397;53.576;9.746;2023-03-31T11:52:14;2.33;;;2.10;;
4766;SDS011;2397;53.576;9.746;2023-03-31T11:57:29;2.47;;;2.23;;
4766;SDS011;2397;53.576;9.746;2023-03-31T12:00:20;2.47;;;2.27;;
4766;SDS011;2397;53.576;9.746;2023-03-31T12:05:30;2.93;;;2.20;;
4766;SDS011;2397;53.576;9.746;2023-03-31T12:10:38;3.13;;;2.40;;
4766;SDS011;2397;53.576;9.746;2023-03-31T12:16:01;3.70;;;2.23;;
4766;SDS011;2397;53.576;9.746;2023-03-31T12:19:07;4.00;;;2.67;;
4766;SDS011;2397;53.576;9.746;2023-03-31T12:21:36;3.60;;;2.60;;
4766;SDS011;2397;53.576;9.746;2023-03-31T12:24:09;3.73;;;2.43;;
4766;SDS011;2397;53.576;9.746;2023-03-31T12:26:56;4.63;;;2.50;;
4766;SDS011;2397;53.576;9.746;2023-03-31T12:29:35;4.03;;;2.47;;
4766;SDS011;2397;53.576;9.746;2023-03-31T12:32:13;4.30;;;2.80;;
4766;SDS011;2397;53.576;9.746;2023-03-31T12:34:45;3.20;;;2.70;;
4766;SDS011;2397;53.576;9.746;2023-03-31T12:40:36;4.40;;;3.10;;
4766;SDS011;2397;53.576;9.746;2023-03-31T12:43:23;7.73;;;3.30;;
4766;SDS011;2397;53.576;9.746;2023-03-31T12:46:07;4.00;;;3.20;;
4766;SDS011;2397;53.576;9.746;2023-03-31T13:02:16;3.93;;;3.30;;
4766;SDS011;2397;53.576;9.746;2023-03-31T13:04:49;5.77;;;4.07;;
4766;SDS011;2397;53.576;9.746;2023-03-31T13:09:58;5.03;;;3.30;;
4766;SDS011;2397;53.576;9.746;2023-03-31T13:12:55;7.10;;;4.03;;
4766;SDS011;2397;53.576;9.746;2023-03-31T13:15:23;4.27;;;3.87;;
4766;SDS011;2397;53.576;9.746;2023-03-31T13:18:04;9.57;;;4.00;;
4766;SDS011;2397;53.576;9.746;2023-03-31T13:20:36;7.53;;;3.70;;
4766;SDS011;2397;53.576;9.746;2023-03-31T13:23:04;3.60;;;3.30;;
4766;SDS011;2397;53.576;9.746;2023-03-31T13:25:44;5.20;;;3.60;;
4766;SDS011;2397;53.576;9.746;2023-03-31T13:31:10;4.90;;;3.67;;
4766;SDS011;2397;53.576;9.746;2023-03-31T13:38:51;4.40;;;2.90;;
4766;SDS011;2397;53.576;9.746;2023-03-31T13:41:48;5.07;;;2.87;;
4766;SDS011;2397;53.576;9.746;2023-03-31T13:44:37;3.47;;;3.10;;
4766;SDS011;2397;53.576;9.746;2023-03-31T13:47:33;4.00;;;2.93;;
4766;SDS011;2397;53.576;9.746;2023-03-31T14:02:12;2.90;;;2.60;;
4766;SDS011;2397;53.576;9.746;2023-03-31T14:07:45;3.13;;;2.40;;
4766;SDS011;2397;53.576;9.746;2023-03-31T14:10:26;3.90;;;2.50;;
4766;SDS011;2397;53.576;9.746;2023-03-31T14:13:03;2.30;;;2.20;;
4766;SDS011;2397;53.576;9.746;2023-03-31T14:15:32;2.90;;;2.50;;
4766;SDS011;2397;53.576;9.746;2023-03-31T14:18:01;2.40;;;2.20;;
4766;SDS011;2397;53.576;9.746;2023-03-31T14:20:31;2.73;;;2.53;;
4766;SDS011;2397;53.576;9.746;2023-03-31T14:23:22;3.57;;;2.40;;
4766;SDS011;2397;53.576;9.746;2023-03-31T14:26:10;2.70;;;2.43;;
4766;SDS011;2397;53.576;9.746;2023-03-31T14:28:47;2.93;;;2.37;;
4766;SDS011;2397;53.576;9.746;2023-03-31T14:34:17;2.77;;;2.57;;
4766;SDS011;2397;53.576;9.746;2023-03-31T14:36:53;2.93;;;2.43;;
4766;SDS011;2397;53.576;9.746;2023-03-31T14:39:26;2.17;;;2.00;;
4766;SDS011;2397;53.576;9.746;2023-03-31T14:42:01;4.67;;;2.57;;
4766;SDS011;2397;53.576;9.746;2023-03-31T14:44:32;2.23;;;2.03;;
4766;SDS011;2397;53.576;9.746;2023-03-31T14:46:59;2.47;;;2.07;;
4766;SDS011;2397;53.576;9.746;2023-03-31T14:49:28;2.17;;;2.00;;
4766;SDS011;2397;53.576;9.746;2023-03-31T14:52:00;2.63;;;2.43;;
4766;SDS011;2397;53.576;9.746;2023-03-31T14:54:34;2.77;;;2.57;;
4766;SDS011;2397;53.576;9.746;2023-03-31T14:57:06;4.10;;;2.40;;
4766;SDS011;2397;53.576;9.746;2023-03-31T14:59:33;2.03;;;1.83;;
4766;SDS011;2397;53.576;9.746;2023-03-31T15:02:02;2.00;;;1.90;;
4766;SDS011;2397;53.576;9.746;2023-03-31T15:04:32;3.27;;;2.20;;
4766;SDS011;2397;53.576;9.746;2023-03-31T15:07:10;3.23;;;1.90;;
4766;SDS011;2397;53.576;9.746;2023-03-31T15:09:37;2.00;;;1.90;;
4766;SDS011;2397;53.576;9.746;2023-03-31T15:12:06;2.70;;;2.47;;
4766;SDS011;2397;53.576;9.746;2023-03-31T15:14:39;1.80;;;1.70;;
4766;SDS011;2397;53.576;9.746;2023-03-31T15:17:17;2.77;;;2.53;;
4766;SDS011;2397;53.576;9.746;2023-03-31T15:19:50;2.40;;;2.20;;
4766;SDS011;2397;53.576;9.746;2023-03-31T15:22:18;2.73;;;2.50;;
4766;SDS011;2397;53.576;9.746;2023-03-31T15:24:48;2.60;;;2.40;;
4766;SDS011;2397;53.576;9.746;2023-03-31T15:27:17;2.70;;;2.50;;
4766;SDS011;2397;53.576;9.746;2023-03-31T15:30:03;5.57;;;2.20;;
4766;SDS011;2397;53.576;9.746;2023-03-31T15:32:35;2.20;;;2.10;;
4766;SDS011;2397;53.576;9.746;2023-03-31T15:35:05;2.60;;;2.40;;
4766;SDS011;2397;53.576;9.746;2023-03-31T15:37:48;5.13;;;2.10;;
4766;SDS011;2397;53.576;9.746;2023-03-31T15:40:21;2.53;;;2.10;;
4766;SDS011;2397;53.576;9.746;2023-03-31T15:45:48;2.30;;;2.20;;
4766;SDS011;2397;53.576;9.746;2023-03-31T15:48:27;3.07;;;2.53;;
4766;SDS011;2397;53.576;9.746;2023-03-31T15:51:02;2.73;;;2.53;;
4766;SDS011;2397;53.576;9.746;2023-03-31T15:53:36;3.50;;;2.87;;
4766;SDS011;2397;53.576;9.746;2023-03-31T15:56:09;3.80;;;3.43;;
4766;SDS011;2397;53.576;9.746;2023-03-31T16:01:21;5.17;;;3.23;;
4766;SDS011;2397;53.576;9.746;2023-03-31T16:03:51;4.50;;;3.50;;
4766;SDS011;2397;53.576;9.746;2023-03-31T16:06:21;3.63;;;3.30;;
4766;SDS011;2397;53.576;9.746;2023-03-31T16:11:43;4.00;;;2.67;;
4766;SDS011;2397;53.576;9.746;2023-03-31T16:14:21;3.00;;;2.80;;
4766;SDS011;2397;53.576;9.746;2023-03-31T16:16:55;2.67;;;2.50;;
4766;SDS011;2397;53.576;9.746;2023-03-31T16:19:30;3.00;;;2.80;;
4766;SDS011;2397;53.576;9.746;2023-03-31T16:22:04;2.73;;;2.53;;
4766;SDS011;2397;53.576;9.746;2023-03-31T16:24:31;2.70;;;2.33;;
4766;SDS011;2397;53.576;9.746;2023-03-31T16:27:01;2.90;;;2.60;;
4766;SDS011;2397;53.576;9.746;2023-03-31T16:29:35;2.87;;;2.67;;
4766;SDS011;2397;53.576;9.746;2023-03-31T16:32:07;2.63;;;2.43;;
4766;SDS011;2397;53.576;9.746;2023-03-31T16:34:54;2.70;;;2.50;;
4766;SDS011;2397;53.576;9.746;2023-03-31T16:37:21;3.63;;;2.63;;
4766;SDS011;2397;53.576;9.746;2023-03-31T16:39:48;3.20;;;2.50;;
4766;SDS011;2397;53.576;9.746;2023-03-31T16:42:15;2.60;;;2.40;;
4766;SDS011;2397;53.576;9.746;2023-03-31T16:44:42;2.50;;;2.30;;
4766;SDS011;2397;53.576;9.746;2023-03-31T16:47:21;2.50;;;2.30;;
4766;SDS011;2397;53.576;9.746;2023-03-31T16:50:00;3.97;;;2.80;;
4766;SDS011;2397;53.576;9.746;2023-03-31T16:52:32;3.03;;;2.50;;
4766;SDS011;2397;53.576;9.746;2023-03-31T16:54:58;3.80;;;2.77;;
4766;SDS011;2397;53.576;9.746;2023-03-31T16:57:25;2.83;;;2.63;;
4766;SDS011;2397;53.576;9.746;2023-03-31T16:59:51;2.70;;;2.50;;
4766;SDS011;2397;53.576;9.746;2023-03-31T17:02:18;3.10;;;2.83;;
4766;SDS011;2397;53.576;9.746;2023-03-31T17:04:44;5.20;;;3.63;;
4766;SDS011;2397;53.576;9.746;2023-03-31T17:07:11;2.47;;;2.37;;
4766;SDS011;2397;53.576;9.746;2023-03-31T17:09:37;6.20;;;2.60;;
4766;SDS011;2397;53.576;9.746;2023-03-31T17:12:04;3.23;;;2.93;;
4766;SDS011;2397;53.576;9.746;2023-03-31T17:14:31;2.50;;;2.30;;
4766;SDS011;2397;53.576;9.746;2023-03-31T17:16:57;2.67;;;2.47;;
4766;SDS011;2397;53.576;9.746;2023-03-31T17:19:24;3.00;;;2.53;;
4766;SDS011;2397;53.576;9.746;2023-03-31T17:21:52;3.00;;;2.80;;
4766;SDS011;2397;53.576;9.746;2023-03-31T17:24:20;6.27;;;2.70;;
4766;SDS011;2397;53.576;9.746;2023-03-31T17:26:47;3.50;;;2.70;;
4766;SDS011;2397;53.576;9.746;2023-03-31T17:29:14;3.50;;;3.00;;
4766;SDS011;2397;53.576;9.746;2023-03-31T17:31:41;4.53;;;3.30;;
4766;SDS011;2397;53.576;9.746;2023-03-31T17:34:08;7.13;;;3.50;;
4766;SDS011;2397;53.576;9.746;2023-03-31T17:36:35;7.27;;;4.00;;
4766;SDS011;2397;53.576;9.746;2023-03-31T17:39:02;5.03;;;3.40;;
4766;SDS011;2397;53.576;9.746;2023-03-31T17:41:30;6.93;;;3.37;;
4766;SDS011;2397;53.576;9.746;2023-03-31T17:43:56;18.37;;;4.17;;
4766;SDS011;2397;53.576;9.746;2023-03-31T17:46:24;8.37;;;3.27;;
4766;SDS011;2397;53.576;9.746;2023-03-31T17:48:50;3.60;;;3.30;;
4766;SDS011;2397;53.576;9.746;2023-03-31T17:51:19;3.50;;;3.10;;
4766;SDS011;2397;53.576;9.746;2023-03-31T17:53:46;5.20;;;3.07;;
4766;SDS011;2397;53.576;9.746;2023-03-31T17:56:13;3.33;;;3.10;;
4766;SDS011;2397;53.576;9.746;2023-03-31T17:58:40;3.80;;;3.27;;
4766;SDS011;2397;53.576;9.746;2023-03-31T18:01:08;4.40;;;4.10;;
4766;SDS011;2397;53.576;9.746;2023-03-31T18:03:35;3.40;;;3.13;;
4766;SDS011;2397;53.576;9.746;2023-03-31T18:06:06;3.93;;;3.63;;